createdAt,value
2023-03-08T00:01:13.430Z,16.02
2023-03-08T00:03:41.779Z,14.45
2023-03-08T00:06:12.404Z,14.68
2023-03-08T00:08:40.772Z,13.73
2023-03-08T00:11:10.018Z,18.00
2023-03-08T00:13:38.413Z,16.30
2023-03-08T00:16:10.280Z,14.60
2023-03-08T00:18:38.785Z,13.32
2023-03-08T00:21:11.417Z,12.60
2023-03-08T00:23:40.052Z,13.13
2023-03-08T00:26:08.324Z,14.77
2023-03-08T00:28:36.839Z,15.27
2023-03-08T00:31:09.488Z,14.02
2023-03-08T00:33:37.962Z,14.05
2023-03-08T00:36:09.667Z,13.27
2023-03-08T00:38:39.098Z,12.90
2023-03-08T00:41:07.911Z,14.23
2023-03-08T00:43:36.938Z,16.17
2023-03-08T00:46:05.607Z,10.90
2023-03-08T00:48:35.481Z,14.75
2023-03-08T00:51:03.966Z,14.20
2023-03-08T00:53:32.284Z,13.73
2023-03-08T00:56:01.206Z,13.95
2023-03-08T00:58:32.920Z,13.02
2023-03-08T01:01:01.665Z,13.05
2023-03-08T01:03:30.849Z,12.43
2023-03-08T01:06:00.969Z,13.40
2023-03-08T01:08:29.240Z,14.88
2023-03-08T01:11:00.418Z,12.02
2023-03-08T01:13:31.407Z,12.40
2023-03-08T01:16:00.082Z,11.10
2023-03-08T01:18:28.608Z,13.38
2023-03-08T01:21:01.234Z,13.60
2023-03-08T01:23:31.230Z,11.57
2023-03-08T01:26:00.518Z,13.15
2023-03-08T01:28:28.846Z,13.13
2023-03-08T01:31:03.427Z,12.45
2023-03-08T01:33:31.808Z,10.88
2023-03-08T01:36:03.570Z,12.40
2023-03-08T01:38:32.033Z,11.32
2023-03-08T01:41:03.025Z,15.10
2023-03-08T01:43:33.620Z,12.45
2023-03-08T01:46:27.130Z,11.45
2023-03-08T01:49:04.576Z,12.88
2023-03-08T01:51:38.807Z,12.05
2023-03-08T01:54:11.570Z,12.25
2023-03-08T01:56:41.881Z,12.40
2023-03-08T01:59:10.495Z,14.07
2023-03-08T02:01:40.156Z,13.68
2023-03-08T02:04:09.524Z,13.10
2023-03-08T02:06:39.747Z,13.50
2023-03-08T02:09:08.649Z,11.52
2023-03-08T02:11:39.304Z,11.38
2023-03-08T02:14:07.862Z,13.80
2023-03-08T02:16:36.687Z,11.60
2023-03-08T02:19:09.291Z,11.18
2023-03-08T02:21:39.197Z,13.32
2023-03-08T02:24:20.198Z,13.13
2023-03-08T02:26:50.842Z,13.43
2023-03-08T02:29:19.208Z,13.45
2023-03-08T02:31:48.382Z,13.75
2023-03-08T02:34:16.665Z,15.00
2023-03-08T02:36:44.939Z,13.23
2023-03-08T02:39:15.452Z,12.70
2023-03-08T02:41:43.749Z,13.10
2023-03-08T02:44:14.985Z,13.50
2023-03-08T02:46:43.281Z,12.95
2023-03-08T02:49:11.798Z,14.18
2023-03-08T02:51:40.025Z,12.52
2023-03-08T02:54:08.425Z,11.30
2023-03-08T02:56:38.438Z,14.30
2023-03-08T02:59:07.602Z,12.13
2023-03-08T03:01:36.588Z,13.85
2023-03-08T03:04:06.745Z,12.35
2023-03-08T03:06:36.355Z,12.23
2023-03-08T03:09:07.681Z,12.18
2023-03-08T03:11:37.685Z,13.38
2023-03-08T03:14:06.142Z,12.50
2023-03-08T03:16:40.435Z,11.75
2023-03-08T03:19:11.031Z,13.15
2023-03-08T03:21:40.800Z,13.05
2023-03-08T03:24:09.377Z,12.95
2023-03-08T03:26:47.975Z,15.93
2023-03-08T03:29:16.218Z,14.73
2023-03-08T03:31:46.431Z,12.48
2023-03-08T03:34:15.546Z,15.02
2023-03-08T03:36:45.717Z,15.35
2023-03-08T03:39:14.492Z,12.93
2023-03-08T03:41:43.742Z,13.00
2023-03-08T03:44:16.455Z,14.10
2023-03-08T03:46:46.836Z,12.52
2023-03-08T03:49:18.013Z,15.25
2023-03-08T03:51:48.432Z,13.60
2023-03-08T03:54:23.247Z,13.68
2023-03-08T03:56:51.798Z,14.70
2023-03-08T03:59:26.755Z,15.68
2023-03-08T04:01:55.827Z,15.68
2023-03-08T04:04:32.680Z,13.98
2023-03-08T04:07:01.297Z,16.13
2023-03-08T04:09:34.469Z,14.57
2023-03-08T04:12:13.647Z,12.68
2023-03-08T04:14:43.639Z,13.85
2023-03-08T04:17:14.627Z,14.90
2023-03-08T04:19:50.569Z,13.93
2023-03-08T04:22:20.193Z,15.02
2023-03-08T04:24:53.334Z,14.75
2023-03-08T04:27:27.940Z,18.20
2023-03-08T04:29:57.803Z,14.93
2023-03-08T04:32:26.039Z,16.17
2023-03-08T04:34:58.465Z,14.60
2023-03-08T04:37:30.591Z,14.93
2023-03-08T04:40:09.398Z,13.48
2023-03-08T04:42:44.033Z,15.82
2023-03-08T04:45:16.838Z,16.08
2023-03-08T04:47:45.883Z,12.75
2023-03-08T04:50:15.694Z,13.60
2023-03-08T04:52:44.175Z,13.30
2023-03-08T04:55:13.369Z,12.60
2023-03-08T04:57:41.827Z,16.08
2023-03-08T05:00:11.613Z,15.13
2023-03-08T05:02:43.064Z,15.70
2023-03-08T05:05:16.302Z,12.63
2023-03-08T05:07:45.464Z,15.63
2023-03-08T05:13:09.668Z,15.35
2023-03-08T05:15:38.009Z,14.10
2023-03-08T05:18:07.647Z,16.48
2023-03-08T05:20:38.406Z,14.95
2023-03-08T05:23:06.965Z,17.35
2023-03-08T05:25:45.117Z,15.85
2023-03-08T05:28:15.996Z,17.15
2023-03-08T05:30:45.845Z,15.95
2023-03-08T05:33:16.529Z,16.80
2023-03-08T05:35:45.246Z,16.30
2023-03-08T05:38:13.711Z,18.00
2023-03-08T05:40:42.856Z,17.27
2023-03-08T05:43:12.732Z,16.42
2023-03-08T05:45:41.351Z,16.05
2023-03-08T05:48:10.382Z,15.48
2023-03-08T05:50:40.274Z,15.68
2023-03-08T05:53:08.777Z,16.27
2023-03-08T05:55:37.561Z,15.27
2023-03-08T05:58:06.666Z,16.42
2023-03-08T06:00:35.851Z,14.38
2023-03-08T06:03:04.655Z,15.52
2023-03-08T06:05:36.570Z,16.92
2023-03-08T06:08:06.780Z,16.17
2023-03-08T06:10:35.264Z,15.60
2023-03-08T06:13:04.517Z,18.48
2023-03-08T06:15:32.999Z,17.27
2023-03-08T06:18:01.733Z,16.58
2023-03-08T06:20:30.489Z,16.38
2023-03-08T06:22:58.990Z,17.60
2023-03-08T06:25:28.646Z,17.02
2023-03-08T06:27:57.273Z,20.73
2023-03-08T06:30:32.344Z,16.92
2023-03-08T06:33:00.725Z,18.98
2023-03-08T06:35:29.113Z,17.20
2023-03-08T06:38:01.963Z,18.20
2023-03-08T06:40:31.697Z,18.67
2023-03-08T06:43:00.708Z,17.13
2023-03-08T06:45:29.228Z,17.90
2023-03-08T06:47:57.432Z,21.45
2023-03-08T06:50:25.973Z,20.95
2023-03-08T06:52:55.612Z,19.83
2023-03-08T06:55:37.935Z,18.20
2023-03-08T06:58:06.484Z,20.25
2023-03-08T07:00:35.445Z,17.70
2023-03-08T07:03:03.925Z,19.77
2023-03-08T07:05:32.619Z,18.33
2023-03-08T07:08:00.974Z,19.85
2023-03-08T07:10:29.732Z,19.80
2023-03-08T07:12:59.426Z,21.98
2023-03-08T07:15:28.212Z,26.38
2023-03-08T07:17:58.170Z,18.67
2023-03-08T07:20:28.769Z,23.23
2023-03-08T07:22:57.438Z,24.93
2023-03-08T07:25:25.698Z,20.23
2023-03-08T07:27:54.066Z,20.80
2023-03-08T07:30:23.896Z,20.70
2023-03-08T07:32:54.417Z,21.35
2023-03-08T07:35:22.803Z,24.07
2023-03-08T07:37:51.331Z,22.95
2023-03-08T07:40:20.008Z,19.55
2023-03-08T07:42:49.813Z,23.02
2023-03-08T07:45:31.678Z,20.25
2023-03-08T07:48:00.134Z,20.65
2023-03-08T07:50:28.426Z,19.13
2023-03-08T07:52:56.775Z,19.88
2023-03-08T07:55:25.590Z,18.70
2023-03-08T07:57:53.934Z,17.25
2023-03-08T08:00:22.854Z,20.63
2023-03-08T08:02:54.112Z,18.90
2023-03-08T08:05:23.135Z,17.38
2023-03-08T08:07:51.782Z,19.20
2023-03-08T08:10:20.441Z,19.35
2023-03-08T08:12:48.867Z,21.73
2023-03-08T08:15:17.740Z,20.17
2023-03-08T08:17:46.399Z,18.42
2023-03-08T08:20:15.988Z,16.35
2023-03-08T08:22:44.257Z,19.77
2023-03-08T08:25:12.611Z,18.02
2023-03-08T08:27:40.861Z,18.77
2023-03-08T08:30:11.383Z,18.00
2023-03-08T08:32:40.519Z,20.17
2023-03-08T08:35:09.291Z,16.80
2023-03-08T08:37:38.950Z,18.13
2023-03-08T08:40:10.468Z,19.08
2023-03-08T08:45:08.016Z,18.45
2023-03-08T08:47:36.375Z,16.45
2023-03-08T08:50:04.968Z,17.35
2023-03-08T08:52:33.200Z,22.02
2023-03-08T08:55:02.833Z,16.55
2023-03-08T08:57:32.993Z,17.33
2023-03-08T09:00:01.521Z,15.35
2023-03-08T09:02:29.847Z,15.65
2023-03-08T09:04:58.197Z,17.40
2023-03-08T09:07:26.609Z,16.42
2023-03-08T09:09:55.972Z,16.30
2023-03-08T09:12:25.583Z,16.25
2023-03-08T09:14:53.830Z,18.83
2023-03-08T09:17:22.020Z,16.70
2023-03-08T09:19:50.867Z,19.20
2023-03-08T09:22:19.531Z,17.85
2023-03-08T09:24:51.245Z,17.48
2023-03-08T09:27:19.788Z,18.13
2023-03-08T09:29:49.471Z,17.75
2023-03-08T09:32:17.853Z,16.48
2023-03-08T09:34:46.845Z,18.20
2023-03-08T09:37:15.351Z,16.48
2023-03-08T09:39:43.571Z,16.23
2023-03-08T09:42:20.850Z,17.88
2023-03-08T09:45:12.205Z,17.88
2023-03-08T09:47:47.974Z,16.52
2023-03-08T09:50:26.763Z,19.10
2023-03-08T09:53:00.197Z,20.48
2023-03-08T09:55:31.308Z,17.58
2023-03-08T09:58:03.101Z,18.00
2023-03-08T10:00:34.840Z,19.17
2023-03-08T10:03:34.924Z,18.90
2023-03-08T10:06:13.354Z,20.63
2023-03-08T10:08:50.964Z,18.58
2023-03-08T10:11:24.812Z,18.10
2023-03-08T10:13:57.130Z,20.70
2023-03-08T10:16:29.631Z,17.13
2023-03-08T10:19:02.304Z,19.35
2023-03-08T10:21:33.039Z,19.80
2023-03-08T10:24:03.853Z,21.23
2023-03-08T10:26:32.442Z,19.20
2023-03-08T10:29:00.717Z,22.55
2023-03-08T10:31:33.659Z,19.55
2023-03-08T10:34:10.777Z,17.55
2023-03-08T10:36:50.014Z,20.00
2023-03-08T10:39:21.040Z,18.27
2023-03-08T10:41:52.581Z,17.80
2023-03-08T10:44:33.982Z,20.00
2023-03-08T10:47:06.286Z,16.65
2023-03-08T10:49:34.613Z,19.80
2023-03-08T10:52:03.095Z,17.38
2023-03-08T10:54:31.339Z,17.95
2023-03-08T10:57:01.834Z,19.63
2023-03-08T10:59:33.405Z,20.65
2023-03-08T11:04:33.319Z,18.15
2023-03-08T11:07:12.770Z,21.65
2023-03-08T11:09:41.154Z,18.70
2023-03-08T11:12:24.170Z,19.00
2023-03-08T11:14:53.236Z,23.10
2023-03-08T11:17:29.374Z,26.60
2023-03-08T11:20:11.228Z,18.15
2023-03-08T11:23:05.116Z,18.33
2023-03-08T11:25:40.911Z,12.60
2023-03-08T11:28:40.860Z,13.38
2023-03-08T11:31:15.909Z,9.48
2023-03-08T11:34:05.049Z,13.35
2023-03-08T11:36:41.504Z,8.80
2023-03-08T11:39:19.197Z,8.45
2023-03-08T11:41:56.486Z,9.05
2023-03-08T11:44:53.111Z,8.85
2023-03-08T11:47:53.454Z,9.02
2023-03-08T11:50:27.836Z,10.55
2023-03-08T11:53:05.949Z,9.45
2023-03-08T11:55:44.542Z,11.32
2023-03-08T11:58:20.403Z,14.88
2023-03-08T12:00:52.247Z,10.57
2023-03-08T12:03:34.389Z,10.45
2023-03-08T12:06:22.832Z,11.63
2023-03-08T12:09:00.425Z,10.43
2023-03-08T12:11:32.865Z,12.15
2023-03-08T12:14:07.416Z,12.27
2023-03-08T12:16:42.286Z,11.38
2023-03-08T12:19:18.955Z,10.02
2023-03-08T12:21:52.812Z,9.82
2023-03-08T12:24:30.888Z,12.07
2023-03-08T12:27:05.129Z,11.90
2023-03-08T12:29:40.501Z,12.18
2023-03-08T12:32:11.852Z,11.93
2023-03-08T12:34:43.055Z,13.00
2023-03-08T12:37:26.922Z,10.55
2023-03-08T12:40:01.084Z,9.30
2023-03-08T12:42:35.863Z,10.48
2023-03-08T12:45:23.521Z,9.32
2023-03-08T12:47:58.502Z,10.00
2023-03-08T12:50:26.923Z,8.40
2023-03-08T12:52:58.824Z,8.18
2023-03-08T12:55:31.890Z,8.35
2023-03-08T12:58:04.181Z,10.43
2023-03-08T13:00:34.519Z,15.52
2023-03-08T13:03:05.627Z,14.80
2023-03-08T13:05:36.543Z,13.98
2023-03-08T13:08:28.862Z,13.70
2023-03-08T13:11:16.747Z,12.45
2023-03-08T13:13:51.528Z,10.75
2023-03-08T13:16:24.238Z,9.77
2023-03-08T13:19:03.553Z,7.43
2023-03-08T13:21:35.725Z,6.28
2023-03-08T13:24:15.757Z,5.20
2023-03-08T13:26:54.066Z,4.97
2023-03-08T13:29:23.161Z,2.42
2023-03-08T13:31:52.329Z,3.40
2023-03-08T13:34:27.045Z,2.97
2023-03-08T13:36:55.858Z,3.45
2023-03-08T13:39:27.392Z,2.20
2023-03-08T13:44:34.721Z,6.13
2023-03-08T13:47:05.306Z,5.90
2023-03-08T13:49:37.560Z,4.90
2023-03-08T13:52:20.599Z,2.33
2023-03-08T13:54:53.171Z,1.38
2023-03-08T13:57:23.791Z,1.60
2023-03-08T13:59:55.003Z,1.17
2023-03-08T14:02:25.797Z,1.88
2023-03-08T14:04:54.925Z,1.67
2023-03-08T14:07:25.417Z,1.83
2023-03-08T14:09:55.749Z,3.17
2023-03-08T14:12:26.018Z,2.13
2023-03-08T14:14:57.825Z,1.95
2023-03-08T14:17:28.414Z,2.53
2023-03-08T14:19:58.396Z,3.75
2023-03-08T14:22:39.320Z,3.95
2023-03-08T14:25:23.381Z,3.45
2023-03-08T14:27:52.729Z,4.15
2023-03-08T14:30:23.299Z,5.95
2023-03-08T14:33:01.109Z,3.85
2023-03-08T14:35:31.809Z,6.25
2023-03-08T14:38:00.341Z,9.33
2023-03-08T14:40:32.707Z,7.88
2023-03-08T14:43:04.634Z,7.95
2023-03-08T14:45:39.048Z,4.05
2023-03-08T14:48:22.912Z,3.53
2023-03-08T14:50:56.968Z,1.35
2023-03-08T14:53:30.332Z,1.90
2023-03-08T14:56:01.798Z,2.97
2023-03-08T14:58:32.087Z,4.05
2023-03-08T15:01:02.530Z,3.60
2023-03-08T15:03:32.412Z,4.88
2023-03-08T15:06:06.182Z,3.42
2023-03-08T15:08:34.768Z,3.55
2023-03-08T15:11:04.472Z,2.20
2023-03-08T15:13:32.792Z,1.42
2023-03-08T15:16:01.233Z,1.45
2023-03-08T15:18:29.490Z,2.92
2023-03-08T15:20:58.475Z,0.82
2023-03-08T15:23:29.005Z,3.33
2023-03-08T15:25:59.323Z,1.33
2023-03-08T15:28:30.080Z,2.85
2023-03-08T15:30:58.529Z,1.40
2023-03-08T15:33:26.964Z,3.05
2023-03-08T15:35:55.436Z,1.58
2023-03-08T15:38:24.892Z,3.50
2023-03-08T15:40:53.147Z,3.65
2023-03-08T15:43:21.384Z,0.98
2023-03-08T15:45:51.015Z,2.15
2023-03-08T15:48:20.066Z,1.73
2023-03-08T15:50:50.085Z,1.50
2023-03-08T15:53:29.545Z,1.00
2023-03-08T15:56:02.999Z,1.70
2023-03-08T15:58:31.328Z,1.45
2023-03-08T16:01:00.978Z,2.17
2023-03-08T16:03:31.321Z,2.65
2023-03-08T16:06:00.170Z,1.38
2023-03-08T16:08:29.441Z,1.65
2023-03-08T16:11:03.631Z,1.73
2023-03-08T16:13:32.055Z,1.23
2023-03-08T16:16:02.766Z,3.75
2023-03-08T16:18:32.167Z,2.93
2023-03-08T16:21:01.025Z,2.42
2023-03-08T16:23:29.369Z,1.63
2023-03-08T16:26:14.176Z,2.33
2023-03-08T16:28:45.092Z,2.67
2023-03-08T16:31:15.914Z,1.70
2023-03-08T16:33:44.354Z,0.82
2023-03-08T16:36:12.835Z,2.65
2023-03-08T16:38:41.620Z,8.32
2023-03-08T16:41:13.188Z,5.18
2023-03-08T16:43:48.177Z,124.03
2023-03-08T16:46:20.449Z,332.10
2023-03-08T16:48:49.938Z,418.90
2023-03-08T16:51:20.283Z,479.77
2023-03-08T16:53:48.865Z,509.48
2023-03-08T16:56:20.782Z,444.27
2023-03-08T16:58:49.435Z,360.35
2023-03-08T17:01:20.468Z,249.15
2023-03-08T17:03:49.477Z,239.48
2023-03-08T17:06:21.388Z,198.88
2023-03-08T17:08:50.089Z,158.13
2023-03-08T17:11:19.655Z,137.00
2023-03-08T17:13:51.035Z,95.95
2023-03-08T17:16:21.763Z,50.90
2023-03-08T17:18:51.253Z,43.27
2023-03-08T17:21:20.964Z,37.85
2023-03-08T17:23:50.968Z,42.00
2023-03-08T17:26:21.085Z,28.83
2023-03-08T17:28:50.910Z,23.75
2023-03-08T17:31:22.281Z,25.23
2023-03-08T17:33:51.478Z,18.65
2023-03-08T17:36:20.601Z,16.95
2023-03-08T17:38:49.205Z,11.55
2023-03-08T17:41:17.729Z,10.57
2023-03-08T17:43:46.230Z,12.25
2023-03-08T17:46:16.344Z,12.40
2023-03-08T17:48:48.995Z,7.32
2023-03-08T17:51:19.578Z,5.93
2023-03-08T17:53:48.045Z,4.57
2023-03-08T17:56:18.449Z,5.15
2023-03-08T17:58:46.758Z,4.22
2023-03-08T18:01:17.312Z,3.90
2023-03-08T18:03:46.333Z,3.08
2023-03-08T18:06:20.611Z,4.68
2023-03-08T18:08:48.921Z,3.58
2023-03-08T18:11:17.157Z,4.82
2023-03-08T18:13:45.515Z,3.35
2023-03-08T18:16:13.743Z,2.90
2023-03-08T18:18:42.011Z,3.60
2023-03-08T18:21:13.857Z,2.45
2023-03-08T18:23:44.144Z,2.65
2023-03-08T18:26:13.721Z,2.97
2023-03-08T18:28:42.043Z,3.50
2023-03-08T18:31:11.789Z,2.85
2023-03-08T18:33:40.202Z,3.38
2023-03-08T18:36:08.668Z,2.38
2023-03-08T18:38:37.466Z,3.00
2023-03-08T18:41:15.145Z,5.13
2023-03-08T18:43:43.847Z,2.72
2023-03-08T18:46:13.867Z,3.65
2023-03-08T18:48:42.971Z,2.55
2023-03-08T18:51:11.325Z,4.78
2023-03-08T18:53:40.229Z,2.92
2023-03-08T18:56:09.046Z,1.98
2023-03-08T18:58:38.799Z,2.70
2023-03-08T19:01:12.209Z,2.17
2023-03-08T19:03:40.874Z,2.00
2023-03-08T19:06:09.544Z,1.50
2023-03-08T19:08:38.249Z,1.55
2023-03-08T19:11:14.385Z,1.80
2023-03-08T19:13:44.676Z,1.67
2023-03-08T19:16:19.890Z,1.50
2023-03-08T19:18:49.163Z,2.13
2023-03-08T19:21:19.382Z,1.05
2023-03-08T19:23:48.111Z,4.78
2023-03-08T19:26:48.438Z,15.18
2023-03-08T19:29:20.106Z,95.63
2023-03-08T19:34:20.407Z,145.75
2023-03-08T19:36:49.890Z,266.20
2023-03-08T19:39:21.403Z,151.93
2023-03-08T19:41:50.443Z,80.13
2023-03-08T19:44:20.490Z,117.90
2023-03-08T19:46:49.013Z,171.38
2023-03-08T19:49:19.091Z,403.85
2023-03-08T19:51:49.027Z,315.23
2023-03-08T19:54:17.700Z,189.70
2023-03-08T19:56:46.138Z,123.57
2023-03-08T19:59:15.114Z,109.10
2023-03-08T20:01:45.214Z,253.07
2023-03-08T20:04:13.957Z,151.70
2023-03-08T20:06:46.227Z,402.25
2023-03-08T20:09:18.468Z,298.65
2023-03-08T20:11:46.810Z,206.50
2023-03-08T20:14:14.998Z,175.75
2023-03-08T20:16:44.760Z,112.10
2023-03-08T20:19:13.157Z,65.55
2023-03-08T20:21:41.941Z,48.10
2023-03-08T20:24:10.902Z,39.15
2023-03-08T20:26:39.618Z,30.17
2023-03-08T20:29:07.883Z,21.10
2023-03-08T20:31:36.282Z,19.50
2023-03-08T20:34:05.882Z,11.13
2023-03-08T20:36:34.482Z,8.10
2023-03-08T20:39:02.989Z,6.55
2023-03-08T20:41:31.396Z,5.30
2023-03-08T20:43:59.765Z,4.07
2023-03-08T20:46:32.964Z,4.32
2023-03-08T20:49:02.491Z,3.45
2023-03-08T20:51:32.260Z,3.33
2023-03-08T20:54:00.590Z,3.90
2023-03-08T20:56:28.869Z,2.08
2023-03-08T20:59:00.554Z,7.28
2023-03-08T21:01:32.450Z,4.47
2023-03-08T21:04:01.200Z,4.43
2023-03-08T21:06:32.630Z,4.97
2023-03-08T21:09:01.643Z,3.05
2023-03-08T21:11:30.279Z,2.80
2023-03-08T21:14:01.597Z,3.88
2023-03-08T21:16:30.692Z,2.22
2023-03-08T21:19:03.779Z,4.35
2023-03-08T21:21:35.568Z,3.65
2023-03-08T21:24:06.300Z,4.22
2023-03-08T21:26:35.604Z,2.97
2023-03-08T21:29:06.043Z,2.45
2023-03-08T21:31:36.516Z,3.28
2023-03-08T21:34:05.824Z,2.97
2023-03-08T21:36:37.553Z,4.45
2023-03-08T21:39:07.365Z,4.00
2023-03-08T21:41:38.727Z,5.82
2023-03-08T21:44:09.535Z,4.15
2023-03-08T21:46:38.197Z,4.38
2023-03-08T21:49:06.918Z,2.88
2023-03-08T21:51:37.057Z,5.50
2023-03-08T21:54:06.013Z,4.95
2023-03-08T21:56:35.861Z,3.85
2023-03-08T21:59:04.704Z,3.63
2023-03-08T22:01:33.890Z,4.80
2023-03-08T22:04:03.518Z,2.97
2023-03-08T22:06:32.470Z,3.28
2023-03-08T22:09:02.518Z,4.45
2023-03-08T22:11:30.864Z,2.58
2023-03-08T22:14:01.462Z,3.22
2023-03-08T22:16:31.394Z,2.45
2023-03-08T22:19:02.009Z,2.90
2023-03-08T22:21:30.313Z,2.15
2023-03-08T22:24:03.817Z,2.00
2023-03-08T22:26:32.930Z,1.42
2023-03-08T22:29:01.632Z,1.73
2023-03-08T22:31:31.618Z,1.83
2023-03-08T22:34:01.384Z,2.45
2023-03-08T22:36:29.794Z,3.13
2023-03-08T22:38:58.400Z,3.50
2023-03-08T22:41:29.239Z,1.95
2023-03-08T22:43:57.511Z,12.73
2023-03-08T22:46:27.518Z,7.32
2023-03-08T22:48:58.538Z,4.32
2023-03-08T22:51:28.453Z,5.63
2023-03-08T22:53:59.080Z,2.58
2023-03-08T22:56:30.754Z,2.35
2023-03-08T22:58:59.742Z,4.13
2023-03-08T23:01:30.073Z,4.35
2023-03-08T23:04:00.093Z,3.50
2023-03-08T23:06:30.009Z,3.35
2023-03-08T23:09:02.251Z,2.92
2023-03-08T23:11:32.284Z,2.03
2023-03-08T23:14:00.867Z,2.08
2023-03-08T23:16:29.358Z,2.17
2023-03-08T23:18:57.800Z,2.28
2023-03-08T23:21:29.336Z,1.88
2023-03-08T23:23:58.063Z,1.13
2023-03-08T23:26:28.479Z,1.63
2023-03-08T23:29:00.126Z,2.67
2023-03-08T23:34:00.601Z,2.08
2023-03-08T23:36:31.074Z,2.55
2023-03-08T23:39:01.903Z,2.22
2023-03-08T23:41:30.480Z,1.33
2023-03-08T23:44:01.256Z,2.03
2023-03-08T23:46:30.913Z,2.15
2023-03-08T23:49:01.862Z,1.33
2023-03-08T23:51:32.161Z,1.60
2023-03-08T23:54:02.623Z,2.40
2023-03-08T23:56:38.078Z,2.22
2023-03-08T23:59:12.265Z,1.45
